Time;durP1;ratioP1;P1;durP2;ratioP2;P2;SDS_P1;SDS_P2;PMS_P1;PMS_P2;Temp;Humidity;BMP_temperature;BMP_pressure;BME280_temperature;BME280_humidity;BME280_pressure;Samples;Min_cycle;Max_cycle;Signal;HPM_P1;HPM_P2
2023/09/28 00:02:21;;;;;;;4.20;3.38;;;14.20;82.20;;;;;;4979586;28;20509;-63
2023/09/28 00:04:47;;;;;;;3.70;3.30;;;14.20;81.30;;;;;;4984461;28;20081;-62
2023/09/28 00:07:12;;;;;;;5.32;3.80;;;14.20;81.20;;;;;;4986675;28;20054;-63
2023/09/28 00:09:38;;;;;;;4.18;3.70;;;14.20;81.20;;;;;;4987507;28;20034;-63
2023/09/28 00:12:03;;;;;;;4.20;3.80;;;14.20;81.20;;;;;;4983552;28;20038;-63
2023/09/28 00:14:29;;;;;;;5.88;4.50;;;14.20;81.30;;;;;;4986189;28;20417;-63
2023/09/28 00:16:57;;;;;;;5.40;4.65;;;14.20;81.40;;;;;;4985430;28;20027;-63
2023/09/28 00:19:23;;;;;;;6.20;5.05;;;14.10;81.50;;;;;;4980504;28;20065;-63
2023/09/28 00:21:49;;;;;;;5.95;5.03;;;14.10;81.70;;;;;;4979905;28;20109;-62
2023/09/28 00:24:15;;;;;;;5.60;4.95;;;14.10;81.80;;;;;;4978206;28;20129;-63
2023/09/28 00:26:41;;;;;;;4.88;4.40;;;14.10;82.00;;;;;;4981592;28;20053;-63
2023/09/28 00:29:07;;;;;;;5.85;4.75;;;14.10;82.20;;;;;;4983424;28;20118;-63
2023/09/28 00:31:32;;;;;;;5.45;4.95;;;14.10;82.20;;;;;;4983074;28;20043;-63
2023/09/28 00:33:59;;;;;;;7.10;5.53;;;14.10;82.40;;;;;;4979979;28;20129;-63
2023/09/28 00:36:25;;;;;;;6.03;5.15;;;14.10;82.30;;;;;;4981726;28;20121;-63
2023/09/28 00:38:51;;;;;;;6.72;5.60;;;14.10;82.20;;;;;;4982495;28;20125;-63
2023/09/28 00:41:16;;;;;;;6.38;5.30;;;14.10;82.10;;;;;;4982442;28;20306;-63
2023/09/28 00:43:42;;;;;;;7.05;5.70;;;14.10;82.10;;;;;;4981074;28;20039;-63
2023/09/28 00:46:12;;;;;;;5.57;5.00;;;14.20;82.20;;;;;;4983297;28;20034;-63
2023/09/28 00:48:46;;;;;;;6.72;5.45;;;14.20;82.30;;;;;;4980994;28;20097;-63
2023/09/28 00:51:11;;;;;;;6.45;5.32;;;14.20;82.40;;;;;;4978120;28;20372;-63
2023/09/28 00:53:37;;;;;;;5.95;5.35;;;14.20;82.20;;;;;;4982555;28;20030;-63
2023/09/28 00:56:07;;;;;;;7.07;5.60;;;14.20;82.20;;;;;;4982980;28;20126;-63
2023/09/28 00:58:33;;;;;;;6.05;5.35;;;14.20;82.20;;;;;;4979791;28;20030;-62
2023/09/28 01:01:00;;;;;;;5.40;4.90;;;14.20;82.00;;;;;;4979667;28;20406;-63
2023/09/28 01:03:27;;;;;;;8.63;6.68;;;14.20;81.90;;;;;;4981070;28;20520;-63
2023/09/28 01:05:52;;;;;;;7.50;6.47;;;14.20;82.00;;;;;;4979912;28;20034;-63
2023/09/28 01:08:18;;;;;;;8.77;7.07;;;14.10;82.00;;;;;;4980287;28;20030;-63
2023/09/28 01:10:44;;;;;;;7.65;6.55;;;14.10;82.30;;;;;;4980602;28;20125;-63
2023/09/28 01:13:12;;;;;;;5.80;5.18;;;14.00;82.50;;;;;;4983044;28;20042;-63
2023/09/28 01:15:48;;;;;;;5.40;4.63;;;14.00;82.40;;;;;;4981376;28;20041;-63
2023/09/28 01:18:16;;;;;;;5.35;3.90;;;14.00;82.40;;;;;;4980880;28;20502;-63
2023/09/28 01:20:47;;;;;;;3.65;3.35;;;14.00;82.20;;;;;;4979232;28;20038;-63
2023/09/28 01:23:13;;;;;;;4.03;3.40;;;14.00;81.80;;;;;;4981013;28;20517;-63
2023/09/28 01:25:39;;;;;;;3.92;3.45;;;13.90;81.40;;;;;;4982717;28;20038;-63
2023/09/28 01:28:06;;;;;;;3.95;3.35;;;13.90;81.30;;;;;;4980346;28;20038;-63
2023/09/28 01:30:32;;;;;;;4.55;3.85;;;13.80;81.30;;;;;;4980234;28;20457;-63
2023/09/28 01:32:58;;;;;;;5.75;3.47;;;13.70;81.40;;;;;;4979662;28;20110;-63
2023/09/28 01:35:24;;;;;;;5.45;3.70;;;13.70;81.70;;;;;;4982351;28;20133;-63
2023/09/28 01:38:03;;;;;;;3.75;3.28;;;13.70;81.90;;;;;;4984135;28;20033;-63
2023/09/28 01:40:29;;;;;;;4.50;3.60;;;13.60;81.90;;;;;;4984239;28;20085;-63
2023/09/28 01:42:55;;;;;;;4.10;3.72;;;13.60;82.00;;;;;;4985789;28;20042;-63
2023/09/28 01:45:20;;;;;;;3.58;3.28;;;13.60;82.20;;;;;;4986305;28;20045;-63
2023/09/28 01:47:46;;;;;;;4.10;3.70;;;13.60;81.90;;;;;;4986803;28;20114;-63
2023/09/28 01:50:12;;;;;;;4.93;3.85;;;13.70;81.90;;;;;;4984989;28;20043;-62
2023/09/28 01:52:37;;;;;;;5.35;3.85;;;13.60;81.60;;;;;;4982697;28;20236;-62
2023/09/28 01:55:03;;;;;;;3.85;3.55;;;13.50;81.50;;;;;;4985703;28;20109;-63
2023/09/28 01:57:28;;;;;;;4.20;3.63;;;13.50;81.70;;;;;;4984322;28;20034;-61
2023/09/28 01:59:54;;;;;;;4.78;4.28;;;13.40;81.70;;;;;;4984549;28;20120;-63
2023/09/28 02:02:21;;;;;;;8.77;3.80;;;13.40;81.90;;;;;;4983496;28;20045;-62
2023/09/28 02:04:47;;;;;;;5.28;3.72;;;13.40;82.00;;;;;;4984293;28;20609;-63
2023/09/28 02:07:13;;;;;;;6.00;4.38;;;13.30;82.00;;;;;;4986061;28;20311;-63
2023/09/28 02:09:39;;;;;;;6.28;5.10;;;13.30;82.20;;;;;;4984431;28;20397;-63
2023/09/28 02:12:06;;;;;;;7.20;4.85;;;13.20;82.40;;;;;;4982849;28;20097;-63
2023/09/28 02:14:32;;;;;;;6.75;5.55;;;13.20;82.80;;;;;;4986003;28;20038;-63
2023/09/28 02:16:58;;;;;;;6.97;5.60;;;13.10;83.10;;;;;;4986202;28;20299;-63
2023/09/28 02:19:24;;;;;;;7.38;5.63;;;13.10;83.40;;;;;;4982625;28;20486;-63
2023/09/28 02:21:51;;;;;;;7.28;5.70;;;13.10;83.60;;;;;;4983702;28;20117;-63
2023/09/28 02:24:17;;;;;;;5.95;5.35;;;13.10;83.80;;;;;;4985974;28;20035;-63
2023/09/28 02:26:44;;;;;;;5.80;5.15;;;13.10;83.80;;;;;;4984513;28;20037;-64
2023/09/28 02:29:10;;;;;;;7.63;5.65;;;13.10;84.00;;;;;;4986590;28;20041;-63
2023/09/28 02:31:42;;;;;;;6.85;5.28;;;13.10;83.80;;;;;;4985769;28;20030;-63
2023/09/28 02:34:08;;;;;;;6.65;4.85;;;13.10;83.80;;;;;;4982620;28;20395;-63
2023/09/28 02:36:35;;;;;;;5.85;4.63;;;13.10;83.60;;;;;;4981748;28;20058;-63
2023/09/28 02:39:04;;;;;;;5.03;4.53;;;13.10;83.70;;;;;;4984117;28;20077;-62
2023/09/28 02:41:30;;;;;;;4.78;4.38;;;13.20;83.60;;;;;;4983543;28;20613;-63
2023/09/28 02:43:55;;;;;;;5.35;4.50;;;13.20;83.70;;;;;;4984003;28;20431;-61
2023/09/28 02:46:21;;;;;;;4.72;4.30;;;13.20;83.60;;;;;;4986563;28;20054;-63
2023/09/28 02:48:46;;;;;;;7.60;4.32;;;13.20;83.30;;;;;;4985068;28;20030;-64
2023/09/28 02:51:12;;;;;;;4.97;4.47;;;13.20;83.10;;;;;;4982952;28;20033;-62
2023/09/28 02:53:37;;;;;;;5.40;4.18;;;13.20;83.10;;;;;;4983940;28;20038;-63
2023/09/28 02:56:07;;;;;;;5.45;4.38;;;13.20;82.90;;;;;;4983327;28;20125;-63
2023/09/28 02:58:34;;;;;;;8.43;4.40;;;13.20;83.10;;;;;;4983587;28;20036;-63
2023/09/28 03:01:00;;;;;;;4.70;3.88;;;13.10;83.20;;;;;;4983775;28;20053;-63
2023/09/28 03:03:26;;;;;;;5.20;4.30;;;13.20;83.10;;;;;;4983665;28;20045;-62
2023/09/28 03:05:54;;;;;;;4.38;3.97;;;13.10;83.30;;;;;;4983490;28;20034;-62
2023/09/28 03:08:20;;;;;;;4.75;4.22;;;13.10;82.90;;;;;;4986202;28;20030;-63
2023/09/28 03:10:46;;;;;;;4.03;3.67;;;13.10;83.20;;;;;;4981787;28;20964;-63
2023/09/28 03:13:11;;;;;;;4.85;3.92;;;13.00;83.30;;;;;;4983263;28;20027;-63
2023/09/28 03:15:44;;;;;;;4.90;4.40;;;13.10;83.40;;;;;;4982469;28;20030;-63
2023/09/28 03:18:13;;;;;;;4.30;3.80;;;13.00;83.70;;;;;;4983975;28;20286;-63
2023/09/28 03:20:43;;;;;;;4.28;3.88;;;13.00;83.30;;;;;;4983492;28;20113;-63
2023/09/28 03:23:09;;;;;;;4.53;4.13;;;13.00;83.30;;;;;;4981441;28;20710;-63
2023/09/28 03:25:34;;;;;;;4.93;4.28;;;13.00;83.30;;;;;;4984356;28;20088;-63
2023/09/28 03:28:01;;;;;;;7.22;4.20;;;13.00;83.40;;;;;;4987356;28;20049;-63
2023/09/28 03:30:28;;;;;;;5.53;4.63;;;13.00;83.50;;;;;;4986541;28;20125;-63
2023/09/28 03:32:54;;;;;;;6.38;5.05;;;13.00;83.60;;;;;;4987390;28;20943;-63
2023/09/28 03:35:20;;;;;;;6.10;5.15;;;13.00;83.50;;;;;;4987750;28;20030;-62
2023/09/28 03:37:47;;;;;;;5.07;4.57;;;13.00;83.60;;;;;;4987596;28;20030;-62
2023/09/28 03:40:14;;;;;;;6.30;4.93;;;13.00;83.80;;;;;;4987366;28;20114;-63
2023/09/28 03:42:41;;;;;;;8.40;5.05;;;13.00;83.80;;;;;;4985558;28;20030;-63
2023/09/28 03:45:09;;;;;;;8.07;5.55;;;12.90;84.00;;;;;;4987593;28;20524;-62
2023/09/28 03:47:39;;;;;;;6.97;5.03;;;12.90;84.30;;;;;;4987693;28;20046;-62
2023/09/28 03:50:07;;;;;;;6.50;4.75;;;12.90;84.50;;;;;;4987162;28;20509;-63
2023/09/28 03:52:34;;;;;;;5.53;4.90;;;12.90;84.50;;;;;;4985797;28;20042;-63
2023/09/28 03:54:59;;;;;;;7.05;5.32;;;12.90;84.50;;;;;;4987377;28;20040;-63
2023/09/28 03:57:25;;;;;;;5.85;5.10;;;12.90;84.50;;;;;;4987697;28;20125;-62
2023/09/28 03:59:51;;;;;;;6.43;5.60;;;12.90;84.30;;;;;;4985981;28;20031;-63
2023/09/28 04:02:16;;;;;;;6.85;5.13;;;12.90;84.30;;;;;;4987133;28;20031;-63
2023/09/28 04:04:42;;;;;;;8.15;4.63;;;12.90;84.30;;;;;;4985960;28;20030;-63
2023/09/28 04:07:08;;;;;;;6.38;4.78;;;12.90;84.40;;;;;;4985917;28;20031;-63
2023/09/28 04:09:34;;;;;;;6.55;5.60;;;12.90;84.60;;;;;;4986484;28;20041;-62
2023/09/28 04:12:00;;;;;;;6.13;5.45;;;12.90;84.80;;;;;;4983963;28;20270;-63
2023/09/28 04:14:26;;;;;;;6.03;5.13;;;12.90;84.60;;;;;;4985794;28;20030;-63
2023/09/28 04:16:51;;;;;;;6.45;5.32;;;12.90;84.60;;;;;;4986155;28;20568;-63
2023/09/28 04:19:17;;;;;;;6.28;5.13;;;12.90;84.60;;;;;;4985599;28;20035;-63
2023/09/28 04:21:42;;;;;;;5.80;5.13;;;12.90;84.60;;;;;;4984937;28;20113;-63
2023/09/28 04:24:08;;;;;;;5.93;5.32;;;12.90;84.70;;;;;;4985505;28;20039;-63
2023/09/28 04:26:34;;;;;;;5.88;5.20;;;12.90;84.60;;;;;;4982788;28;20031;-63
2023/09/28 04:29:00;;;;;;;6.22;5.63;;;13.00;84.50;;;;;;4983700;28;20405;-62
2023/09/28 04:31:25;;;;;;;5.32;4.82;;;12.90;84.50;;;;;;4985257;28;20041;-63
2023/09/28 04:33:52;;;;;;;6.93;5.18;;;12.90;84.50;;;;;;4986873;28;20065;-63
2023/09/28 04:36:17;;;;;;;7.22;5.47;;;12.90;84.90;;;;;;4987092;28;20092;-62
2023/09/28 04:38:43;;;;;;;7.07;4.93;;;12.90;84.90;;;;;;4986475;28;20038;-63
2023/09/28 04:41:09;;;;;;;9.48;6.95;;;12.90;84.80;;;;;;4987205;28;20596;-63
2023/09/28 04:43:34;;;;;;;10.27;7.45;;;12.90;84.80;;;;;;4986303;28;20038;-62
2023/09/28 04:46:07;;;;;;;9.65;8.02;;;12.90;84.70;;;;;;4987008;28;20106;-63
2023/09/28 04:48:33;;;;;;;8.63;7.72;;;12.90;85.20;;;;;;4985767;28;20482;-63
2023/09/28 04:50:58;;;;;;;9.10;7.85;;;12.80;84.80;;;;;;4986672;28;20498;-62
2023/09/28 04:53:24;;;;;;;9.35;7.63;;;12.80;85.10;;;;;;4986830;28;20047;-62
2023/09/28 04:55:49;;;;;;;8.73;7.55;;;12.80;85.40;;;;;;4986838;28;20034;-62
2023/09/28 04:58:15;;;;;;;9.60;6.07;;;12.80;85.60;;;;;;4986778;28;20109;-63
2023/09/28 05:00:41;;;;;;;7.68;6.88;;;12.80;85.60;;;;;;4986165;28;20050;-63
2023/09/28 05:03:06;;;;;;;9.63;7.47;;;12.80;85.70;;;;;;4986254;28;20038;-63
2023/09/28 05:05:35;;;;;;;8.48;7.10;;;12.80;85.70;;;;;;4986387;28;20066;-63
2023/09/28 05:08:02;;;;;;;7.70;6.90;;;12.80;85.90;;;;;;4986509;28;20069;-63
2023/09/28 05:10:27;;;;;;;11.13;8.27;;;12.90;86.10;;;;;;4986067;28;20037;-63
2023/09/28 05:12:53;;;;;;;7.78;6.85;;;12.90;86.30;;;;;;4989618;28;20035;-63
2023/09/28 05:15:19;;;;;;;9.52;8.50;;;12.90;86.60;;;;;;4990790;28;20042;-63
2023/09/28 05:17:45;;;;;;;11.52;9.07;;;12.90;86.80;;;;;;4990603;28;20041;-63
2023/09/28 05:20:11;;;;;;;11.20;8.88;;;13.00;87.40;;;;;;4990451;28;20069;-63
2023/09/28 05:22:37;;;;;;;9.90;7.85;;;13.00;87.60;;;;;;4987961;28;20027;-63
2023/09/28 05:25:03;;;;;;;9.80;8.35;;;13.00;87.90;;;;;;4990398;28;20096;-63
2023/09/28 05:27:28;;;;;;;10.88;8.23;;;13.10;88.00;;;;;;4990191;28;20034;-63
2023/09/28 05:29:54;;;;;;;9.55;7.95;;;13.10;88.00;;;;;;4990183;28;20573;-60
2023/09/28 05:32:20;;;;;;;8.43;7.43;;;13.10;88.10;;;;;;4986255;28;20087;-62
2023/09/28 05:34:46;;;;;;;8.82;7.72;;;13.20;88.10;;;;;;4988929;28;20034;-63
2023/09/28 05:37:12;;;;;;;8.88;7.15;;;13.20;88.10;;;;;;4990529;28;20073;-61
2023/09/28 05:39:38;;;;;;;8.60;7.18;;;13.30;87.90;;;;;;4989516;28;20042;-63
2023/09/28 05:42:04;;;;;;;8.32;7.47;;;13.30;87.80;;;;;;4989683;28;20032;-63
2023/09/28 05:44:30;;;;;;;11.07;7.47;;;13.40;87.80;;;;;;4989160;28;20061;-63
2023/09/28 05:46:56;;;;;;;9.55;7.28;;;13.40;87.60;;;;;;4989523;28;20038;-63
2023/09/28 05:49:21;;;;;;;8.75;7.18;;;13.50;87.50;;;;;;4990063;28;20026;-63
2023/09/28 05:51:47;;;;;;;9.18;7.30;;;13.50;87.40;;;;;;4989248;28;20031;-63
2023/09/28 05:54:13;;;;;;;7.53;6.72;;;13.50;87.40;;;;;;4989867;28;20034;-63
2023/09/28 05:56:39;;;;;;;11.80;7.72;;;13.50;87.30;;;;;;4987734;28;20034;-63
2023/09/28 05:59:04;;;;;;;9.48;7.65;;;13.60;87.40;;;;;;4989744;28;20045;-63
2023/09/28 06:01:30;;;;;;;9.95;7.43;;;13.70;87.40;;;;;;4989738;28;20038;-62
2023/09/28 06:03:55;;;;;;;7.95;7.05;;;13.70;87.50;;;;;;4989184;28;20097;-63
2023/09/28 06:06:22;;;;;;;9.30;7.93;;;13.70;87.50;;;;;;4989858;28;20038;-63
2023/09/28 06:08:48;;;;;;;7.63;6.72;;;13.70;87.60;;;;;;4988891;28;20038;-63
2023/09/28 06:11:15;;;;;;;10.02;7.53;;;13.80;87.60;;;;;;4988695;28;20101;-63
2023/09/28 06:13:41;;;;;;;8.57;7.60;;;13.80;87.70;;;;;;4989439;28;20093;-62
2023/09/28 06:16:09;;;;;;;7.70;6.65;;;13.80;87.60;;;;;;4989504;28;20097;-62
2023/09/28 06:18:36;;;;;;;9.00;7.50;;;13.90;87.70;;;;;;4988941;28;20039;-63
2023/09/28 06:21:01;;;;;;;12.73;7.55;;;13.90;88.50;;;;;;4989433;28;20129;-62
2023/09/28 06:23:27;;;;;;;8.75;7.13;;;13.90;87.70;;;;;;4987915;28;20134;-63
2023/09/28 06:25:53;;;;;;;8.98;6.70;;;14.00;87.70;;;;;;4988250;28;20469;-62
2023/09/28 06:28:19;;;;;;;9.90;6.70;;;14.00;87.40;;;;;;4988696;28;20510;-63
2023/09/28 06:30:45;;;;;;;10.00;8.27;;;14.10;87.40;;;;;;4988306;28;20042;-63
2023/09/28 06:33:10;;;;;;;9.52;7.68;;;14.00;87.30;;;;;;4987522;28;20295;-63
2023/09/28 06:35:36;;;;;;;9.70;8.35;;;14.00;87.50;;;;;;4989200;28;20039;-63
2023/09/28 06:38:01;;;;;;;9.93;8.57;;;14.10;87.80;;;;;;4989193;28;20034;-63
2023/09/28 06:40:27;;;;;;;13.07;9.27;;;14.10;88.00;;;;;;4988656;28;20065;-63
2023/09/28 06:42:52;;;;;;;10.25;8.82;;;14.10;88.10;;;;;;4988505;28;20026;-63
2023/09/28 06:45:18;;;;;;;11.00;9.30;;;14.10;88.20;;;;;;4988988;28;20571;-62
2023/09/28 06:47:44;;;;;;;11.35;9.13;;;14.10;88.30;;;;;;4988902;28;20034;-63
2023/09/28 06:50:11;;;;;;;10.32;9.05;;;14.10;88.50;;;;;;4988915;28;20022;-61
2023/09/28 06:52:37;;;;;;;11.70;9.00;;;14.10;88.60;;;;;;4988170;28;20046;-62
2023/09/28 06:55:04;;;;;;;10.35;9.32;;;14.10;88.70;;;;;;4988961;28;20045;-63
2023/09/28 06:57:30;;;;;;;12.93;8.90;;;14.10;88.80;;;;;;4988534;28;20429;-62
2023/09/28 06:59:56;;;;;;;14.77;10.07;;;14.20;89.10;;;;;;4988368;28;20339;-63
2023/09/28 07:02:21;;;;;;;9.85;8.50;;;14.20;89.20;;;;;;4988386;28;20525;-63
2023/09/28 07:04:47;;;;;;;12.30;9.30;;;14.20;89.30;;;;;;4986722;28;20066;-64
2023/09/28 07:07:16;;;;;;;10.63;8.98;;;14.30;89.50;;;;;;4987231;28;20117;-63
2023/09/28 07:09:43;;;;;;;12.43;9.27;;;14.40;89.60;;;;;;4988385;28;20048;-63
2023/09/28 07:12:10;;;;;;;11.20;9.60;;;14.40;89.60;;;;;;4984656;28;20064;-63
2023/09/28 07:14:36;;;;;;;10.23;8.95;;;14.50;89.70;;;;;;4987825;28;20031;-63
2023/09/28 07:17:02;;;;;;;13.15;9.30;;;14.60;89.80;;;;;;4986538;28;20116;-63
2023/09/28 07:19:27;;;;;;;12.23;9.38;;;14.70;89.90;;;;;;4986009;28;20121;-64
2023/09/28 07:21:53;;;;;;;10.85;8.50;;;14.80;90.10;;;;;;4986100;28;20030;-63
2023/09/28 07:24:19;;;;;;;10.32;8.38;;;14.90;90.20;;;;;;4986120;28;20497;-63
2023/09/28 07:26:46;;;;;;;10.40;8.27;;;15.00;90.20;;;;;;4984024;28;20046;-63
2023/09/28 07:29:12;;;;;;;10.93;8.18;;;15.10;90.30;;;;;;4986889;28;20034;-64
2023/09/28 07:31:38;;;;;;;10.63;8.02;;;15.20;90.40;;;;;;4984321;28;20037;-62
2023/09/28 07:34:05;;;;;;;13.15;8.30;;;15.30;90.40;;;;;;4986018;28;20124;-63
2023/09/28 07:36:31;;;;;;;10.18;7.95;;;15.50;90.40;;;;;;4984865;28;20034;-63
2023/09/28 07:38:56;;;;;;;9.98;7.30;;;15.60;90.40;;;;;;4987660;28;20426;-63
2023/09/28 07:41:22;;;;;;;9.25;7.88;;;15.70;90.50;;;;;;4987617;28;20181;-63
2023/09/28 07:43:49;;;;;;;13.38;7.82;;;15.80;90.50;;;;;;4987400;28;20540;-64
2023/09/28 07:46:15;;;;;;;13.98;7.90;;;15.90;90.50;;;;;;4987936;28;20442;-63
2023/09/28 07:48:40;;;;;;;13.38;7.82;;;16.00;90.50;;;;;;4986973;28;20031;-64
2023/09/28 07:51:06;;;;;;;14.63;8.07;;;16.10;90.60;;;;;;4987656;28;20035;-63
2023/09/28 07:53:32;;;;;;;12.55;8.15;;;16.30;90.70;;;;;;4987076;28;20118;-63
2023/09/28 07:55:57;;;;;;;11.35;8.55;;;16.40;90.80;;;;;;4987185;28;20042;-63
2023/09/28 07:58:23;;;;;;;14.27;8.48;;;16.50;90.80;;;;;;4987284;28;20031;-63
2023/09/28 08:00:49;;;;;;;9.35;8.32;;;16.60;90.70;;;;;;4987116;28;20121;-63
2023/09/28 08:03:15;;;;;;;11.07;8.82;;;16.70;90.60;;;;;;4985909;28;20385;-63
2023/09/28 08:05:40;;;;;;;10.23;8.80;;;16.80;90.60;;;;;;4988757;28;20049;-63
2023/09/28 08:08:06;;;;;;;10.15;8.75;;;17.00;90.60;;;;;;4988688;28;20030;-62
2023/09/28 08:10:35;;;;;;;12.55;8.32;;;17.10;90.60;;;;;;4986788;28;20026;-62
2023/09/28 08:13:01;;;;;;;11.18;8.63;;;17.20;90.50;;;;;;4987795;28;20046;-62
2023/09/28 08:15:27;;;;;;;13.45;8.80;;;17.30;90.50;;;;;;4989008;28;20057;-62
2023/09/28 08:17:53;;;;;;;11.02;8.82;;;17.40;90.50;;;;;;4988517;28;20095;-63
2023/09/28 08:20:20;;;;;;;10.55;8.52;;;17.50;90.40;;;;;;4988077;28;20061;-63
2023/09/28 08:22:46;;;;;;;12.13;8.15;;;17.60;90.40;;;;;;4987358;28;20031;-63
2023/09/28 08:25:14;;;;;;;9.65;8.23;;;17.70;90.20;;;;;;4988508;28;20383;-64
2023/09/28 08:27:40;;;;;;;12.10;8.18;;;17.70;90.20;;;;;;4988209;28;20034;-63
2023/09/28 08:30:07;;;;;;;8.88;7.97;;;17.90;90.20;;;;;;4988385;28;20049;-63
2023/09/28 08:32:32;;;;;;;9.25;8.25;;;17.90;90.00;;;;;;4987446;28;20125;-63
2023/09/28 08:34:58;;;;;;;9.07;7.70;;;18.00;90.00;;;;;;4988049;28;20121;-63
2023/09/28 08:37:24;;;;;;;7.50;6.45;;;18.10;89.70;;;;;;4987182;28;20261;-62
2023/09/28 08:39:50;;;;;;;8.55;5.65;;;18.20;89.60;;;;;;4987752;28;20031;-63
2023/09/28 08:42:23;;;;;;;9.80;5.30;;;18.40;89.00;;;;;;4988221;28;20166;-63
2023/09/28 08:44:51;;;;;;;11.15;5.18;;;18.50;88.80;;;;;;4987301;28;20053;-63
2023/09/28 08:47:17;;;;;;;6.82;5.68;;;18.60;88.60;;;;;;4988011;28;20177;-64
2023/09/28 08:49:48;;;;;;;8.30;5.40;;;18.80;88.60;;;;;;4988215;28;20042;-61
2023/09/28 08:52:17;;;;;;;6.93;4.80;;;18.90;88.30;;;;;;4987901;28;20034;-63
2023/09/28 08:54:43;;;;;;;6.40;5.05;;;19.00;87.60;;;;;;4987196;28;20030;-63
2023/09/28 08:57:10;;;;;;;11.93;5.10;;;19.20;87.10;;;;;;4987996;28;20080;-63
2023/09/28 08:59:37;;;;;;;13.25;4.53;;;19.30;86.50;;;;;;4987964;28;20037;-64
2023/09/28 09:02:04;;;;;;;6.95;4.47;;;19.40;86.00;;;;;;4987448;28;20026;-63
2023/09/28 09:04:34;;;;;;;6.50;4.65;;;19.60;85.70;;;;;;4987206;28;20900;-63
2023/09/28 09:07:04;;;;;;;9.00;4.43;;;19.60;84.90;;;;;;4987953;28;20026;-64
2023/09/28 09:09:39;;;;;;;6.85;4.45;;;19.70;84.50;;;;;;4987984;28;20034;-63
2023/09/28 09:12:10;;;;;;;6.72;4.72;;;19.80;84.00;;;;;;4987531;28;20548;-64
2023/09/28 09:14:35;;;;;;;5.57;4.35;;;19.90;83.40;;;;;;4987465;28;20046;-64
2023/09/28 09:17:02;;;;;;;7.07;4.15;;;20.00;83.40;;;;;;4988137;28;20045;-64
2023/09/28 09:19:31;;;;;;;7.75;3.90;;;20.10;83.30;;;;;;4987269;28;20576;-63
2023/09/28 09:21:57;;;;;;;8.07;4.88;;;20.20;83.00;;;;;;4987655;28;20052;-63
2023/09/28 09:24:23;;;;;;;7.40;4.80;;;20.20;82.20;;;;;;4987826;28;20722;-64
2023/09/28 09:26:52;;;;;;;9.63;4.57;;;20.30;81.60;;;;;;4987107;28;20497;-63
2023/09/28 09:29:19;;;;;;;7.65;5.10;;;20.40;81.50;;;;;;4987790;28;20445;-63
2023/09/28 09:31:50;;;;;;;5.88;4.28;;;20.50;81.30;;;;;;4987192;28;20035;-63
2023/09/28 09:34:18;;;;;;;8.32;5.00;;;20.50;81.00;;;;;;4987681;28;20525;-63
2023/09/28 09:36:58;;;;;;;8.15;4.40;;;20.60;80.60;;;;;;4984549;28;20043;-63
2023/09/28 09:39:29;;;;;;;5.63;4.22;;;20.70;80.10;;;;;;4987224;28;20326;-63
2023/09/28 09:41:55;;;;;;;7.25;4.57;;;20.70;80.50;;;;;;4984902;28;20100;-64
2023/09/28 09:44:26;;;;;;;7.63;4.90;;;20.80;80.50;;;;;;4985271;28;20496;-63
2023/09/28 09:46:53;;;;;;;7.28;4.68;;;20.90;80.00;;;;;;4985886;28;20035;-63
2023/09/28 09:49:20;;;;;;;6.00;4.82;;;21.00;79.70;;;;;;4987954;28;20109;-63
2023/09/28 09:51:47;;;;;;;5.70;4.63;;;21.00;78.30;;;;;;4987316;28;20045;-64
2023/09/28 09:54:14;;;;;;;7.03;4.80;;;21.10;77.60;;;;;;4987578;28;20117;-63
2023/09/28 09:56:46;;;;;;;4.82;4.32;;;21.20;77.70;;;;;;4986881;28;20046;-63
2023/09/28 09:59:16;;;;;;;5.45;3.50;;;21.30;77.50;;;;;;4989220;28;20035;-62
2023/09/28 10:01:48;;;;;;;5.35;3.90;;;21.40;77.60;;;;;;4990909;28;20504;-62
2023/09/28 10:04:21;;;;;;;4.95;4.22;;;21.40;77.20;;;;;;4991011;28;20409;-64
2023/09/28 10:06:56;;;;;;;5.13;3.92;;;21.50;77.20;;;;;;4984104;28;20776;-62
2023/09/28 10:09:22;;;;;;;5.90;3.97;;;21.60;77.20;;;;;;4990962;28;20084;-64
2023/09/28 10:11:49;;;;;;;5.60;3.80;;;21.60;76.60;;;;;;4987942;28;20030;-62
2023/09/28 10:14:21;;;;;;;6.82;4.10;;;21.80;76.60;;;;;;4990540;28;20417;-64
2023/09/28 10:16:54;;;;;;;3.88;3.47;;;21.80;75.20;;;;;;4990451;28;20111;-64
2023/09/28 10:19:24;;;;;;;5.75;3.55;;;21.90;75.30;;;;;;4991034;28;20033;-63
2023/09/28 10:21:52;;;;;;;4.53;3.45;;;22.00;75.40;;;;;;4990555;28;20026;-63
2023/09/28 10:24:20;;;;;;;5.10;4.10;;;22.10;75.80;;;;;;4990481;28;20093;-63
2023/09/28 10:26:50;;;;;;;5.40;3.92;;;22.20;75.60;;;;;;4989965;28;20499;-63
2023/09/28 10:29:23;;;;;;;12.40;3.90;;;22.30;74.30;;;;;;4990885;28;20049;-64
2023/09/28 10:31:51;;;;;;;5.03;3.42;;;22.40;74.20;;;;;;4990316;28;20276;-63
2023/09/28 10:34:21;;;;;;;4.00;3.50;;;22.40;74.00;;;;;;4989868;28;20058;-63
2023/09/28 10:37:09;;;;;;;4.47;3.60;;;22.50;72.60;;;;;;4989839;28;20042;-63
2023/09/28 10:39:34;;;;;;;5.80;3.30;;;22.60;70.30;;;;;;4990175;28;20030;-63
2023/09/28 10:42:12;;;;;;;5.53;3.25;;;22.70;72.30;;;;;;4988913;28;20046;-63
2023/09/28 10:44:52;;;;;;;5.60;3.15;;;22.70;71.10;;;;;;4989375;28;20070;-64
2023/09/28 10:47:19;;;;;;;4.93;3.00;;;22.80;71.30;;;;;;4988722;28;20037;-64
2023/09/28 10:49:46;;;;;;;4.63;3.40;;;22.90;72.20;;;;;;4989064;28;20056;-64
2023/09/28 10:52:11;;;;;;;4.72;3.65;;;23.00;72.10;;;;;;4989938;28;20387;-64
2023/09/28 10:54:38;;;;;;;3.70;3.00;;;23.00;71.50;;;;;;4990094;28;20045;-64
2023/09/28 10:57:04;;;;;;;4.72;3.38;;;23.10;71.40;;;;;;4990223;28;20030;-64
2023/09/28 10:59:30;;;;;;;4.43;3.03;;;23.20;71.10;;;;;;4990044;28;20408;-64
2023/09/28 11:01:55;;;;;;;5.78;3.10;;;23.20;70.90;;;;;;4989814;28;20582;-64
2023/09/28 11:04:22;;;;;;;6.05;3.20;;;23.40;71.00;;;;;;4989323;28;20030;-64
2023/09/28 11:06:49;;;;;;;4.05;3.10;;;23.40;70.20;;;;;;4988988;28;20030;-64
2023/09/28 11:09:19;;;;;;;3.97;3.10;;;23.50;70.30;;;;;;4989670;28;20029;-64
2023/09/28 11:11:45;;;;;;;4.07;3.22;;;23.50;70.00;;;;;;4988517;28;20058;-64
2023/09/28 11:14:10;;;;;;;3.13;2.47;;;23.60;69.20;;;;;;4989798;28;20030;-64
2023/09/28 11:16:41;;;;;;;6.18;2.67;;;23.70;68.40;;;;;;4989695;28;20044;-64
2023/09/28 11:19:08;;;;;;;7.10;2.90;;;23.80;66.90;;;;;;4989591;28;20038;-64
2023/09/28 11:21:34;;;;;;;4.25;2.50;;;23.80;66.20;;;;;;4989505;28;20119;-64
2023/09/28 11:24:02;;;;;;;3.17;2.30;;;23.90;66.70;;;;;;4989386;28;20133;-64
2023/09/28 11:26:29;;;;;;;3.10;2.65;;;23.90;67.10;;;;;;4989397;28;20027;-64
2023/09/28 11:28:56;;;;;;;5.38;2.80;;;24.00;67.30;;;;;;4989428;28;20030;-64
2023/09/28 11:31:22;;;;;;;4.10;3.17;;;24.10;67.60;;;;;;4989300;28;20093;-64
2023/09/28 11:33:47;;;;;;;5.20;3.00;;;24.20;67.70;;;;;;4989247;28;20038;-64
2023/09/28 11:36:22;;;;;;;5.40;3.30;;;24.30;67.80;;;;;;4989196;28;20042;-64
2023/09/28 11:38:49;;;;;;;4.03;3.45;;;24.30;67.40;;;;;;4988821;28;20034;-64
2023/09/28 11:41:15;;;;;;;5.05;2.97;;;24.40;67.50;;;;;;4989875;28;20022;-64
2023/09/28 11:43:56;;;;;;;4.03;3.30;;;24.50;67.40;;;;;;4988735;28;20723;-64
2023/09/28 11:46:32;;;;;;;3.00;2.70;;;24.60;65.60;;;;;;4989329;28;20092;-64
2023/09/28 11:49:04;;;;;;;4.20;3.25;;;24.60;66.20;;;;;;4989120;28;20030;-64
2023/09/28 11:51:31;;;;;;;3.72;2.35;;;24.70;66.00;;;;;;4989123;28;20038;-64
2023/09/28 11:53:57;;;;;;;2.42;2.22;;;24.70;65.70;;;;;;4988859;28;20042;-64
2023/09/28 11:56:23;;;;;;;2.92;2.20;;;24.70;65.00;;;;;;4988924;28;20383;-64
2023/09/28 11:58:49;;;;;;;2.30;2.10;;;24.80;64.30;;;;;;4988873;28;20490;-64
2023/09/28 12:01:15;;;;;;;4.55;1.80;;;24.80;63.50;;;;;;4987143;28;20121;-64
2023/09/28 12:03:40;;;;;;;2.78;1.83;;;24.90;62.50;;;;;;4984828;28;20177;-64
2023/09/28 12:06:06;;;;;;;1.50;1.40;;;25.00;61.40;;;;;;4987457;28;20030;-64
2023/09/28 12:08:31;;;;;;;2.63;1.58;;;25.00;59.70;;;;;;4988401;28;20030;-65
2023/09/28 12:10:57;;;;;;;1.65;1.48;;;25.00;58.80;;;;;;4987814;28;20030;-64
2023/09/28 12:13:24;;;;;;;1.80;1.63;;;25.10;58.10;;;;;;4988612;28;20038;-64
2023/09/28 12:15:50;;;;;;;2.70;1.52;;;25.10;58.10;;;;;;4988520;28;20540;-64
2023/09/28 12:18:16;;;;;;;2.20;1.73;;;25.10;57.30;;;;;;4988833;28;20042;-64
2023/09/28 12:20:41;;;;;;;4.30;1.40;;;25.10;56.60;;;;;;4987915;28;20133;-63
2023/09/28 12:23:07;;;;;;;3.72;1.50;;;25.20;56.50;;;;;;4987998;28;20093;-64
2023/09/28 12:25:34;;;;;;;3.83;1.70;;;25.20;56.00;;;;;;4988534;28;20585;-64
2023/09/28 12:28:00;;;;;;;4.55;1.30;;;25.30;55.50;;;;;;4988253;28;20050;-64
2023/09/28 12:30:26;;;;;;;4.30;1.48;;;25.30;55.90;;;;;;4988185;28;20528;-64
2023/09/28 12:32:53;;;;;;;2.03;1.33;;;25.40;55.60;;;;;;4987823;28;20037;-64
2023/09/28 12:35:19;;;;;;;1.70;1.60;;;25.40;56.20;;;;;;4988555;28;20065;-64
2023/09/28 12:37:45;;;;;;;2.38;1.13;;;25.40;55.60;;;;;;4988441;28;20117;-64
2023/09/28 12:40:12;;;;;;;3.67;1.70;;;25.50;55.70;;;;;;4988008;28;20038;-64
2023/09/28 12:42:39;;;;;;;4.40;1.70;;;25.50;56.10;;;;;;4986946;28;20505;-64
2023/09/28 12:45:06;;;;;;;1.80;1.58;;;25.50;56.00;;;;;;4987364;28;20505;-63